createdAt,value
2023-04-15T00:02:00.033Z,23.22
2023-04-15T00:04:28.029Z,23.20
2023-04-15T00:06:54.731Z,23.22
2023-04-15T00:09:21.533Z,23.21
2023-04-15T00:11:48.065Z,23.20
2023-04-15T00:14:14.588Z,23.20
2023-04-15T00:16:41.508Z,23.22
2023-04-15T00:19:08.340Z,23.22
2023-04-15T00:21:35.021Z,23.20
2023-04-15T00:24:01.962Z,23.20
2023-04-15T00:26:28.493Z,23.20
2023-04-15T00:28:55.812Z,23.19
2023-04-15T00:31:23.146Z,23.19
2023-04-15T00:33:49.865Z,23.19
2023-04-15T00:36:16.373Z,23.19
2023-04-15T00:38:42.956Z,23.17
2023-04-15T00:41:10.885Z,23.17
2023-04-15T00:43:37.408Z,23.18
2023-04-15T00:46:05.142Z,23.16
2023-04-15T00:48:32.320Z,23.17
2023-04-15T00:50:59.177Z,23.17
2023-04-15T00:53:25.801Z,23.17
2023-04-15T00:55:52.716Z,23.18
2023-04-15T00:58:20.274Z,23.17
2023-04-15T01:00:47.109Z,23.17
2023-04-15T01:03:14.323Z,23.17
2023-04-15T01:05:41.659Z,23.17
2023-04-15T01:08:08.256Z,23.17
2023-04-15T01:10:35.373Z,23.17
2023-04-15T01:13:03.155Z,23.17
2023-04-15T01:15:29.905Z,23.17
2023-04-15T01:17:59.603Z,23.17
2023-04-15T01:20:27.500Z,23.16
2023-04-15T01:22:54.747Z,23.17
2023-04-15T01:25:33.033Z,23.17
2023-04-15T01:28:00.014Z,23.16
2023-04-15T01:30:27.221Z,23.15
2023-04-15T01:32:54.279Z,23.15
2023-04-15T01:35:21.562Z,23.15
2023-04-15T01:37:48.563Z,23.15
2023-04-15T01:40:17.104Z,23.15
2023-04-15T01:42:43.606Z,23.14
2023-04-15T01:45:10.498Z,23.14
2023-04-15T01:47:38.077Z,23.14
2023-04-15T01:50:05.167Z,23.14
2023-04-15T01:52:32.207Z,23.12
2023-04-15T01:54:58.784Z,23.14
2023-04-15T01:57:25.311Z,23.13
2023-04-15T01:59:52.012Z,23.13
2023-04-15T02:02:18.607Z,23.14
2023-04-15T02:04:45.504Z,23.12
2023-04-15T02:07:12.194Z,23.11
2023-04-15T02:09:39.183Z,23.12
2023-04-15T02:12:08.027Z,23.12
2023-04-15T02:14:34.644Z,23.12
2023-04-15T02:17:07.209Z,23.12
2023-04-15T02:19:37.551Z,23.12
2023-04-15T02:22:04.132Z,23.11
2023-04-15T02:24:31.114Z,23.11
2023-04-15T02:26:57.641Z,23.10
2023-04-15T02:29:24.185Z,23.11
2023-04-15T02:31:51.095Z,23.09
2023-04-15T02:34:17.662Z,23.12
2023-04-15T02:36:45.610Z,23.11
2023-04-15T02:39:14.801Z,23.10
2023-04-15T02:41:43.551Z,23.10
2023-04-15T02:44:12.992Z,23.09
2023-04-15T02:46:41.221Z,23.09
2023-04-15T02:49:08.557Z,23.09
2023-04-15T02:51:36.175Z,23.10
2023-04-15T02:54:02.677Z,23.10
2023-04-15T02:56:30.211Z,23.08
2023-04-15T02:58:57.309Z,23.09
2023-04-15T03:01:23.869Z,23.09
2023-04-15T03:03:50.471Z,23.08
2023-04-15T03:06:17.101Z,23.07
2023-04-15T03:08:43.633Z,23.08
2023-04-15T03:11:12.627Z,23.06
2023-04-15T03:13:41.721Z,23.08
2023-04-15T03:16:15.006Z,23.08
2023-04-15T03:18:41.915Z,23.08
2023-04-15T03:21:08.572Z,23.09
2023-04-15T03:23:37.839Z,23.07
2023-04-15T03:26:05.043Z,23.07
2023-04-15T03:28:33.194Z,23.08
2023-04-15T03:31:00.712Z,23.09
2023-04-15T03:33:27.320Z,23.08
2023-04-15T03:35:54.307Z,23.08
2023-04-15T03:38:21.012Z,23.09
2023-04-15T03:40:47.574Z,23.06
2023-04-15T03:43:14.285Z,23.09
2023-04-15T03:45:40.829Z,23.08
2023-04-15T03:48:17.253Z,23.09
2023-04-15T03:50:44.691Z,23.08
2023-04-15T03:53:11.140Z,23.08
2023-04-15T03:55:37.961Z,23.08
2023-04-15T03:58:04.517Z,23.09
2023-04-15T04:00:31.052Z,23.09
2023-04-15T04:02:57.745Z,23.09
2023-04-15T04:05:24.518Z,23.08
2023-04-15T04:07:51.094Z,23.08
2023-04-15T04:10:18.817Z,23.09
2023-04-15T04:12:45.264Z,23.08
2023-04-15T04:15:12.444Z,23.08
2023-04-15T04:17:38.953Z,23.08
2023-04-15T04:20:06.051Z,23.09
2023-04-15T04:22:37.821Z,23.09
2023-04-15T04:25:04.550Z,23.07
2023-04-15T04:27:31.212Z,23.06
2023-04-15T04:29:57.690Z,23.07
2023-04-15T04:32:24.509Z,23.07
2023-04-15T04:34:51.035Z,23.07
2023-04-15T04:37:17.503Z,23.07
2023-04-15T04:39:44.000Z,23.06
2023-04-15T04:42:10.452Z,23.06
2023-04-15T04:44:37.227Z,23.07
2023-04-15T04:47:03.705Z,23.06
2023-04-15T04:49:30.377Z,23.06
2023-04-15T04:51:57.597Z,23.06
2023-04-15T04:54:24.331Z,23.05
2023-04-15T04:56:50.920Z,23.05
2023-04-15T04:59:18.978Z,23.06
2023-04-15T05:01:46.609Z,23.06
2023-04-15T05:04:13.233Z,23.05
2023-04-15T05:06:39.871Z,23.04
2023-04-15T05:09:06.639Z,23.04
2023-04-15T05:11:33.297Z,23.05
2023-04-15T05:14:01.647Z,23.04
2023-04-15T05:16:28.382Z,23.04
2023-04-15T05:18:54.886Z,23.04
2023-04-15T05:21:21.564Z,23.05
2023-04-15T05:23:48.150Z,23.04
2023-04-15T05:26:14.755Z,23.04
2023-04-15T05:28:41.327Z,23.04
2023-04-15T05:31:07.997Z,23.04
2023-04-15T05:33:34.678Z,23.03
2023-04-15T05:36:01.186Z,23.04
2023-04-15T05:38:27.734Z,23.04
2023-04-15T05:40:54.269Z,23.03
2023-04-15T05:43:20.750Z,23.03
2023-04-15T05:45:47.419Z,23.03
2023-04-15T05:48:13.886Z,23.04
2023-04-15T05:50:43.150Z,23.04
2023-04-15T05:53:09.754Z,23.03
2023-04-15T05:55:36.541Z,23.05
2023-04-15T05:58:03.766Z,23.03
2023-04-15T06:00:31.163Z,23.03
2023-04-15T06:02:58.884Z,23.04
2023-04-15T06:05:25.440Z,23.03
2023-04-15T06:07:52.189Z,23.03
2023-04-15T06:10:18.833Z,23.03
2023-04-15T06:12:45.925Z,23.04
2023-04-15T06:15:12.388Z,23.03
2023-04-15T06:17:38.907Z,23.03
2023-04-15T06:20:05.924Z,23.03
2023-04-15T06:22:32.478Z,23.03
2023-04-15T06:24:59.030Z,23.03
2023-04-15T06:27:25.697Z,23.04
2023-04-15T06:29:52.289Z,23.03
2023-04-15T06:32:18.820Z,23.04
2023-04-15T06:34:45.305Z,23.03
2023-04-15T06:37:16.069Z,23.04
2023-04-15T06:39:43.607Z,23.03
2023-04-15T06:42:11.230Z,23.04
2023-04-15T06:44:38.140Z,23.03
2023-04-15T06:47:04.670Z,23.03
2023-04-15T06:49:31.732Z,23.03
2023-04-15T06:51:58.272Z,23.04
2023-04-15T06:54:24.729Z,23.04
2023-04-15T06:56:51.988Z,23.03
2023-04-15T06:59:39.109Z,23.04
2023-04-15T07:02:06.008Z,23.03
2023-04-15T07:04:32.820Z,23.03
2023-04-15T07:07:00.775Z,23.04
2023-04-15T07:09:27.304Z,23.03
2023-04-15T07:11:53.847Z,23.03
2023-04-15T07:14:20.866Z,23.03
2023-04-15T07:16:47.613Z,23.03
2023-04-15T07:19:14.161Z,23.04
2023-04-15T07:21:42.012Z,23.04
2023-04-15T07:24:10.431Z,23.04
2023-04-15T07:26:37.028Z,23.04
2023-04-15T07:29:03.983Z,23.04
2023-04-15T07:31:31.320Z,23.04
2023-04-15T07:33:58.601Z,23.05
2023-04-15T07:36:25.475Z,23.05
2023-04-15T07:38:52.570Z,23.05
2023-04-15T07:41:19.301Z,23.05
2023-04-15T07:43:45.764Z,23.05
2023-04-15T07:46:12.758Z,23.03
2023-04-15T07:48:39.378Z,23.04
2023-04-15T07:51:06.188Z,23.04
2023-04-15T07:53:33.250Z,23.05
2023-04-15T07:55:59.758Z,23.05
2023-04-15T07:58:26.230Z,23.05
2023-04-15T08:00:52.856Z,23.04
2023-04-15T08:03:19.457Z,23.05
2023-04-15T08:05:47.299Z,23.05
2023-04-15T08:08:14.007Z,23.05
2023-04-15T08:10:40.949Z,23.05
2023-04-15T08:13:07.786Z,23.04
2023-04-15T08:15:34.375Z,23.04
2023-04-15T08:18:01.153Z,23.04
2023-04-15T08:20:27.963Z,23.04
2023-04-15T08:22:54.439Z,23.05
2023-04-15T08:25:21.494Z,23.04
2023-04-15T08:27:48.216Z,23.04
2023-04-15T08:30:15.325Z,23.04
2023-04-15T08:32:42.737Z,23.04
2023-04-15T08:35:09.454Z,23.05
2023-04-15T08:37:35.935Z,23.04
2023-04-15T08:40:02.397Z,23.05
2023-04-15T08:42:35.230Z,23.05
2023-04-15T08:45:04.979Z,23.05
2023-04-15T08:47:33.768Z,23.05
2023-04-15T08:50:04.352Z,23.05
2023-04-15T08:52:31.577Z,23.05
2023-04-15T08:55:00.297Z,23.05
2023-04-15T08:57:28.562Z,23.05
2023-04-15T08:59:58.329Z,23.05
2023-04-15T09:02:27.327Z,23.06
2023-04-15T09:04:54.180Z,23.05
2023-04-15T09:07:20.751Z,23.05
2023-04-15T09:09:48.454Z,23.06
2023-04-15T09:12:16.882Z,23.05
2023-04-15T09:14:46.827Z,23.07
2023-04-15T09:17:13.420Z,23.06
2023-04-15T09:19:39.866Z,23.06
2023-04-15T09:22:06.545Z,23.06
2023-04-15T09:24:42.233Z,23.07
2023-04-15T09:27:09.277Z,23.06
2023-04-15T09:29:37.035Z,23.07
2023-04-15T09:32:11.848Z,23.09
2023-04-15T09:34:38.520Z,23.06
2023-04-15T09:37:05.141Z,23.08
2023-04-15T09:39:49.805Z,23.08
2023-04-15T09:42:17.619Z,23.07
2023-04-15T09:44:44.384Z,23.06
2023-04-15T09:47:27.532Z,23.09
2023-04-15T09:49:58.554Z,23.09
2023-04-15T09:52:25.182Z,23.09
2023-04-15T09:54:57.261Z,23.09
2023-04-15T09:57:24.587Z,23.09
2023-04-15T09:59:51.956Z,23.10
2023-04-15T10:02:21.098Z,23.10
2023-04-15T10:04:49.119Z,23.10
2023-04-15T10:07:18.084Z,23.10
2023-04-15T10:09:46.320Z,23.11
2023-04-15T10:12:14.793Z,23.12
2023-04-15T10:14:44.341Z,23.11
2023-04-15T10:17:17.739Z,23.12
2023-04-15T10:19:45.241Z,23.11
2023-04-15T10:22:11.945Z,23.11
2023-04-15T10:24:39.215Z,23.12
2023-04-15T10:27:06.401Z,23.13
2023-04-15T10:29:33.104Z,23.12
2023-04-15T10:32:00.653Z,23.13
2023-04-15T10:34:27.913Z,23.14
2023-04-15T10:37:04.051Z,23.13
2023-04-15T10:39:33.909Z,23.13
2023-04-15T10:42:19.754Z,23.13
2023-04-15T10:44:51.812Z,23.13
2023-04-15T10:47:21.474Z,23.13
2023-04-15T10:49:51.464Z,23.13
2023-04-15T10:52:23.644Z,23.14
2023-04-15T10:54:50.261Z,23.13
2023-04-15T10:57:16.882Z,23.13
2023-04-15T10:59:58.800Z,23.16
2023-04-15T11:02:48.094Z,23.14
2023-04-15T11:05:16.721Z,23.13
2023-04-15T11:07:46.809Z,23.15
2023-04-15T11:10:25.962Z,23.15
2023-04-15T11:12:54.802Z,23.13
2023-04-15T11:15:25.337Z,23.15
2023-04-15T11:17:52.289Z,23.15
2023-04-15T11:20:19.134Z,23.14
2023-04-15T11:22:53.145Z,23.16
2023-04-15T11:25:39.640Z,23.14
2023-04-15T11:28:07.597Z,23.14
2023-04-15T11:30:36.632Z,23.16
2023-04-15T11:33:12.072Z,23.16
2023-04-15T11:35:41.757Z,23.16
2023-04-15T11:38:10.678Z,23.16
2023-04-15T11:40:37.696Z,23.17
2023-04-15T11:43:21.098Z,23.18
2023-04-15T11:45:59.100Z,23.18
2023-04-15T11:48:27.924Z,23.18
2023-04-15T11:51:00.236Z,23.19
2023-04-15T11:53:45.986Z,23.19
2023-04-15T11:56:24.269Z,23.18
2023-04-15T11:58:57.075Z,23.18
2023-04-15T12:01:42.295Z,23.19
2023-04-15T12:04:22.566Z,23.18
2023-04-15T12:06:51.608Z,23.19
2023-04-15T12:09:18.304Z,23.19
2023-04-15T12:11:49.902Z,23.21
2023-04-15T12:14:30.475Z,23.22
2023-04-15T12:17:00.000Z,23.21
2023-04-15T12:19:29.382Z,23.21
2023-04-15T12:22:08.854Z,23.22
2023-04-15T12:24:37.039Z,23.22
2023-04-15T12:27:08.023Z,23.23
2023-04-15T12:29:36.443Z,23.23
2023-04-15T12:32:10.355Z,23.24
2023-04-15T12:34:39.369Z,23.24
2023-04-15T12:37:09.454Z,23.25
2023-04-15T12:39:37.991Z,23.24
2023-04-15T12:42:06.105Z,23.24
2023-04-15T12:44:33.636Z,23.25
2023-04-15T12:47:00.551Z,23.25
2023-04-15T12:49:27.609Z,23.26
2023-04-15T12:51:56.939Z,23.27
2023-04-15T12:54:23.483Z,23.26
2023-04-15T12:56:51.206Z,23.28
2023-04-15T12:59:18.564Z,23.26
2023-04-15T13:01:45.818Z,23.27
2023-04-15T13:04:12.377Z,23.27
2023-04-15T13:06:39.043Z,23.27
2023-04-15T13:09:06.343Z,23.28
2023-04-15T13:11:36.625Z,23.28
2023-04-15T13:14:05.281Z,23.29
2023-04-15T13:16:33.062Z,23.29
2023-04-15T13:19:00.429Z,23.29
2023-04-15T13:21:27.742Z,23.29
2023-04-15T13:23:54.501Z,23.29
2023-04-15T13:26:21.214Z,23.30
2023-04-15T13:28:48.141Z,23.30
2023-04-15T13:31:14.706Z,23.30
2023-04-15T13:33:41.242Z,23.30
2023-04-15T13:36:08.332Z,23.31
2023-04-15T13:38:34.849Z,23.30
2023-04-15T13:41:01.566Z,23.30
2023-04-15T13:43:28.269Z,23.30
2023-04-15T13:45:55.301Z,23.29
2023-04-15T13:48:21.869Z,23.30
2023-04-15T13:50:48.339Z,23.29
2023-04-15T13:53:16.296Z,23.30
2023-04-15T13:55:43.206Z,23.30
2023-04-15T13:58:10.256Z,23.31
2023-04-15T14:00:37.261Z,23.30
2023-04-15T14:03:04.085Z,23.30
2023-04-15T14:05:30.822Z,23.30
2023-04-15T14:07:57.582Z,23.29
2023-04-15T14:10:24.122Z,23.30
2023-04-15T14:12:50.740Z,23.30
2023-04-15T14:15:17.321Z,23.29
2023-04-15T14:17:43.832Z,23.29
2023-04-15T14:20:10.614Z,23.29
2023-04-15T14:22:37.103Z,23.28
2023-04-15T14:25:04.502Z,23.28
2023-04-15T14:27:31.142Z,23.29
2023-04-15T14:29:58.758Z,23.29
2023-04-15T14:32:26.335Z,23.30
2023-04-15T14:34:52.867Z,23.30
2023-04-15T14:37:19.568Z,23.29
2023-04-15T14:39:46.334Z,23.30
2023-04-15T14:42:12.799Z,23.30
2023-04-15T14:44:39.353Z,23.32
2023-04-15T14:47:06.084Z,23.31
2023-04-15T14:49:32.745Z,23.33
2023-04-15T14:51:59.264Z,23.34
2023-04-15T14:54:25.744Z,23.34
2023-04-15T14:56:52.249Z,23.34
2023-04-15T14:59:18.705Z,23.35
2023-04-15T15:01:45.515Z,23.36
2023-04-15T15:04:13.016Z,23.36
2023-04-15T15:06:40.213Z,23.36
2023-04-15T15:09:06.916Z,23.36
2023-04-15T15:11:33.665Z,23.36
2023-04-15T15:14:00.246Z,23.36
2023-04-15T15:16:28.250Z,23.36
2023-04-15T15:18:55.069Z,23.36
2023-04-15T15:21:21.713Z,23.36
2023-04-15T15:23:48.532Z,23.36
2023-04-15T15:26:15.397Z,23.36
2023-04-15T15:28:42.244Z,23.35
2023-04-15T15:31:09.001Z,23.35
2023-04-15T15:33:35.577Z,23.34
2023-04-15T15:36:03.616Z,23.35
2023-04-15T15:38:30.428Z,23.34
2023-04-15T15:40:56.971Z,23.34
2023-04-15T15:43:23.593Z,23.33
2023-04-15T15:45:52.257Z,23.31
2023-04-15T15:48:18.819Z,23.32
2023-04-15T15:50:45.738Z,23.32
2023-04-15T15:53:17.801Z,23.32
2023-04-15T15:55:44.333Z,23.32
2023-04-15T15:58:11.037Z,23.31
2023-04-15T16:00:37.666Z,23.31
2023-04-15T16:03:07.148Z,23.30
2023-04-15T16:05:35.111Z,23.29
2023-04-15T16:08:01.877Z,23.30
2023-04-15T16:10:28.905Z,23.30
2023-04-15T16:12:55.786Z,23.30
2023-04-15T16:15:23.932Z,23.29
2023-04-15T16:17:50.560Z,23.28
2023-04-15T16:20:17.239Z,23.28
2023-04-15T16:22:43.759Z,23.28
2023-04-15T16:25:10.579Z,23.28
2023-04-15T16:30:08.986Z,23.28
2023-04-15T16:32:36.106Z,23.27
2023-04-15T16:35:03.600Z,23.27
2023-04-15T16:37:31.494Z,23.26
2023-04-15T16:39:58.000Z,23.26
2023-04-15T16:42:24.619Z,23.27
2023-04-15T16:44:51.139Z,23.26
2023-04-15T16:47:17.766Z,23.26
2023-04-15T16:49:44.250Z,23.25
2023-04-15T16:52:10.857Z,23.25
2023-04-15T16:54:41.200Z,23.25
2023-04-15T16:57:08.711Z,23.25
2023-04-15T16:59:35.329Z,23.25
2023-04-15T17:02:01.902Z,23.25
2023-04-15T17:04:28.922Z,23.25
2023-04-15T17:06:55.597Z,23.25
2023-04-15T17:09:22.138Z,23.24
2023-04-15T17:11:49.887Z,23.25
2023-04-15T17:14:16.358Z,23.25
2023-04-15T17:16:43.264Z,23.24
2023-04-15T17:19:09.768Z,23.24
2023-04-15T17:21:36.556Z,23.24
2023-04-15T17:24:03.307Z,23.24
2023-04-15T17:26:31.040Z,23.24
2023-04-15T17:28:57.689Z,23.23
2023-04-15T17:31:25.403Z,23.24
2023-04-15T17:34:02.837Z,23.24
2023-04-15T17:36:36.140Z,23.22
2023-04-15T17:39:05.027Z,23.22
2023-04-15T17:41:32.746Z,23.22
2023-04-15T17:43:59.368Z,23.22
2023-04-15T17:46:26.805Z,23.21
2023-04-15T17:48:53.343Z,23.22
2023-04-15T17:51:19.892Z,23.22
2023-04-15T17:53:46.361Z,23.21
2023-04-15T17:56:12.865Z,23.20
2023-04-15T17:58:39.423Z,23.20
2023-04-15T18:01:06.375Z,23.21
2023-04-15T18:03:33.061Z,23.20
2023-04-15T18:06:01.303Z,23.20
2023-04-15T18:08:28.922Z,23.20
2023-04-15T18:10:55.500Z,23.20
2023-04-15T18:13:21.991Z,23.19
2023-04-15T18:15:49.487Z,23.20
2023-04-15T18:18:17.154Z,23.20
2023-04-15T18:20:43.660Z,23.19
2023-04-15T18:23:10.375Z,23.20
2023-04-15T18:25:38.293Z,23.19
2023-04-15T18:28:05.592Z,23.19
2023-04-15T18:30:32.242Z,23.20
2023-04-15T18:32:58.825Z,23.19
2023-04-15T18:35:25.517Z,23.19
2023-04-15T18:37:52.783Z,23.19
2023-04-15T18:40:19.329Z,23.18
2023-04-15T18:42:45.906Z,23.18
2023-04-15T18:45:12.455Z,23.20
2023-04-15T18:47:39.152Z,23.19
2023-04-15T18:50:06.734Z,23.19
2023-04-15T18:52:34.163Z,23.18
2023-04-15T18:55:03.032Z,23.18
2023-04-15T18:57:35.011Z,23.19
2023-04-15T19:00:03.549Z,23.18
2023-04-15T19:02:30.101Z,23.18
2023-04-15T19:04:56.674Z,23.17
2023-04-15T19:07:23.207Z,23.17
2023-04-15T19:09:49.800Z,23.17
2023-04-15T19:12:16.289Z,23.16
2023-04-15T19:14:42.817Z,23.16
2023-04-15T19:17:09.323Z,23.15
2023-04-15T19:19:36.887Z,23.16
2023-04-15T19:22:03.424Z,23.16
2023-04-15T19:24:33.030Z,23.15
2023-04-15T19:26:59.944Z,23.15
2023-04-15T19:29:28.518Z,23.15
2023-04-15T19:31:55.200Z,23.14
2023-04-15T19:34:21.863Z,23.14
2023-04-15T19:36:48.375Z,23.14
2023-04-15T19:39:15.002Z,23.14
2023-04-15T19:41:41.559Z,23.13
2023-04-15T19:44:08.111Z,23.13
2023-04-15T19:46:34.737Z,23.14
2023-04-15T19:49:01.404Z,23.13
2023-04-15T19:51:28.469Z,23.13
2023-04-15T19:53:56.727Z,23.13
2023-04-15T19:56:24.167Z,23.13
2023-04-15T19:58:52.983Z,23.13
2023-04-15T20:01:20.478Z,23.12
2023-04-15T20:03:47.438Z,23.12
2023-04-15T20:06:17.162Z,23.13
2023-04-15T20:08:43.710Z,23.12
2023-04-15T20:11:10.640Z,23.12
2023-04-15T20:13:38.235Z,23.12
2023-04-15T20:16:07.871Z,23.11
2023-04-15T20:18:34.893Z,23.11
2023-04-15T20:21:01.664Z,23.11
2023-04-15T20:23:28.233Z,23.11
2023-04-15T20:25:54.764Z,23.11
2023-04-15T20:28:23.312Z,23.11
2023-04-15T20:30:49.837Z,23.11
2023-04-15T20:33:16.581Z,23.10
2023-04-15T20:35:43.039Z,23.10
2023-04-15T20:38:09.628Z,23.09
2023-04-15T20:40:36.392Z,23.10
2023-04-15T20:43:02.909Z,23.10
2023-04-15T20:45:29.480Z,23.09
2023-04-15T20:47:56.133Z,23.10
2023-04-15T20:50:23.704Z,23.09
2023-04-15T20:52:50.186Z,23.09
2023-04-15T20:55:16.811Z,23.09
2023-04-15T20:57:43.381Z,23.08
2023-04-15T21:00:10.887Z,23.09
2023-04-15T21:02:37.979Z,23.07
2023-04-15T21:05:04.956Z,23.08
2023-04-15T21:07:31.489Z,23.08
2023-04-15T21:09:57.999Z,23.08
2023-04-15T21:12:24.595Z,23.07
2023-04-15T21:14:51.252Z,23.07
2023-04-15T21:17:17.807Z,23.07
2023-04-15T21:19:44.615Z,23.08
2023-04-15T21:22:11.235Z,23.07
2023-04-15T21:24:37.803Z,23.08
2023-04-15T21:27:04.284Z,23.07
2023-04-15T21:29:30.785Z,23.07
2023-04-15T21:31:57.326Z,23.07
2023-04-15T21:34:23.877Z,23.06
2023-04-15T21:36:50.623Z,23.07
2023-04-15T21:39:17.275Z,23.06
2023-04-15T21:41:43.842Z,23.06
2023-04-15T21:44:12.060Z,23.06
2023-04-15T21:46:39.716Z,23.06
2023-04-15T21:49:07.082Z,23.06
2023-04-15T21:51:34.013Z,23.06
2023-04-15T21:54:00.641Z,23.06
2023-04-15T21:56:27.165Z,23.06
2023-04-15T21:58:59.573Z,23.06
2023-04-15T22:01:26.781Z,23.06
2023-04-15T22:03:53.610Z,23.05
2023-04-15T22:06:20.479Z,23.06
2023-04-15T22:08:56.159Z,23.06
2023-04-15T22:11:28.417Z,23.05
2023-04-15T22:13:56.662Z,23.06
2023-04-15T22:16:24.508Z,23.06
2023-04-15T22:18:51.308Z,23.05
2023-04-15T22:21:17.785Z,23.05
2023-04-15T22:23:48.380Z,23.07
2023-04-15T22:26:14.887Z,23.06
2023-04-15T22:28:41.829Z,23.05
2023-04-15T22:31:08.428Z,23.05
2023-04-15T22:33:35.112Z,23.05
2023-04-15T22:36:01.556Z,23.06
2023-04-15T22:38:27.994Z,23.06
2023-04-15T22:40:54.553Z,23.06
2023-04-15T22:43:21.118Z,23.06
2023-04-15T22:45:51.101Z,23.06
2023-04-15T22:48:18.524Z,23.06
2023-04-15T22:50:45.140Z,23.06
2023-04-15T22:53:11.662Z,23.07
2023-04-15T22:55:38.289Z,23.06
2023-04-15T22:58:04.856Z,23.06
2023-04-15T23:00:31.348Z,23.06
2023-04-15T23:02:58.038Z,23.06
2023-04-15T23:05:24.803Z,23.09
2023-04-15T23:07:51.340Z,23.08
2023-04-15T23:10:17.823Z,23.07
2023-04-15T23:12:44.318Z,23.08
2023-04-15T23:15:11.646Z,23.07
2023-04-15T23:17:38.373Z,23.09
2023-04-15T23:20:05.627Z,23.06
2023-04-15T23:22:32.123Z,23.09
2023-04-15T23:24:58.584Z,23.08
2023-04-15T23:27:25.160Z,23.09
2023-04-15T23:29:51.654Z,23.08
2023-04-15T23:32:18.200Z,23.09
2023-04-15T23:34:44.688Z,23.09
2023-04-15T23:37:11.425Z,23.09
2023-04-15T23:39:37.877Z,23.08
2023-04-15T23:42:04.360Z,23.08
2023-04-15T23:44:30.925Z,23.09
2023-04-15T23:46:57.470Z,23.07
2023-04-15T23:49:23.989Z,23.09
2023-04-15T23:51:51.020Z,23.09
2023-04-15T23:54:17.531Z,23.08
2023-04-15T23:56:44.069Z,23.09
2023-04-15T23:59:10.639Z,23.09
